createdAt,value
2023-03-04T00:04:03.101Z,20.35
2023-03-04T00:08:06.207Z,21.52
2023-03-04T00:12:09.640Z,22.88
2023-03-04T00:16:14.268Z,21.10
2023-03-04T00:20:17.384Z,21.95
2023-03-04T00:24:20.362Z,20.92
2023-03-04T00:28:23.484Z,22.60
2023-03-04T00:32:27.953Z,23.83
2023-03-04T00:36:31.690Z,24.85
2023-03-04T00:40:34.935Z,23.08
2023-03-04T00:44:38.513Z,23.63
2023-03-04T00:48:42.960Z,21.80
2023-03-04T00:52:46.160Z,23.27
2023-03-04T00:56:49.409Z,24.40
2023-03-04T01:00:53.307Z,19.55
2023-03-04T01:04:57.762Z,18.60
2023-03-04T01:09:00.801Z,22.23
2023-03-04T01:13:04.298Z,22.33
2023-03-04T01:17:07.394Z,23.45
2023-03-04T01:21:12.673Z,23.50
2023-03-04T01:25:15.893Z,21.70
2023-03-04T01:29:19.021Z,23.50
2023-03-04T01:33:22.757Z,19.52
2023-03-04T01:37:27.833Z,23.05
2023-03-04T01:41:31.057Z,22.77
2023-03-04T01:45:39.145Z,22.88
2023-03-04T01:49:45.003Z,25.08
2023-03-04T01:53:53.418Z,23.67
2023-03-04T01:57:57.447Z,23.10
2023-03-04T02:02:01.796Z,24.08
2023-03-04T02:06:06.698Z,22.45
2023-03-04T02:10:14.023Z,25.23
2023-03-04T02:14:26.583Z,25.80
2023-03-04T02:18:29.554Z,24.10
2023-03-04T02:22:34.129Z,20.90
2023-03-04T02:26:41.382Z,23.30
2023-03-04T02:30:44.646Z,25.63
2023-03-04T02:34:49.715Z,22.70
2023-03-04T02:38:55.584Z,21.57
2023-03-04T02:43:01.637Z,20.10
2023-03-04T02:47:07.061Z,22.90
2023-03-04T02:51:10.425Z,24.40
2023-03-04T02:55:13.608Z,23.83
2023-03-04T02:59:18.575Z,20.30
2023-03-04T03:03:21.642Z,20.40
2023-03-04T03:07:24.740Z,23.80
2023-03-04T03:11:28.417Z,22.65
2023-03-04T03:15:33.512Z,21.98
2023-03-04T03:19:36.710Z,20.02
2023-03-04T03:23:43.367Z,20.55
2023-03-04T03:27:46.516Z,19.77
2023-03-04T03:31:51.663Z,18.38
2023-03-04T03:35:57.430Z,17.90
2023-03-04T03:40:00.936Z,17.17
2023-03-04T03:44:04.038Z,17.00
2023-03-04T03:48:19.708Z,21.20
2023-03-04T03:52:24.149Z,15.63
2023-03-04T03:56:27.153Z,14.67
2023-03-04T04:00:30.307Z,15.47
2023-03-04T04:04:33.443Z,16.80
2023-03-04T04:08:37.900Z,14.97
2023-03-04T04:12:41.128Z,16.53
2023-03-04T04:16:44.226Z,18.80
2023-03-04T04:20:47.731Z,20.63
2023-03-04T04:24:52.134Z,14.50
2023-03-04T04:28:55.160Z,13.27
2023-03-04T04:33:01.634Z,18.13
2023-03-04T04:37:04.597Z,21.03
2023-03-04T04:41:19.667Z,16.67
2023-03-04T04:45:22.676Z,17.93
2023-03-04T04:49:25.726Z,21.90
2023-03-04T04:53:28.800Z,20.00
2023-03-04T04:57:34.289Z,23.57
2023-03-04T05:01:37.685Z,23.70
2023-03-04T05:05:41.004Z,20.17
2023-03-04T05:09:43.971Z,20.00
2023-03-04T05:13:49.333Z,20.07
2023-03-04T05:17:52.343Z,21.97
2023-03-04T05:21:55.390Z,23.37
2023-03-04T05:25:58.378Z,26.50
2023-03-04T05:30:02.867Z,26.47
2023-03-04T05:34:05.941Z,28.80
2023-03-04T05:38:11.833Z,25.13
2023-03-04T05:42:14.817Z,26.33
2023-03-04T05:46:25.409Z,26.33
2023-03-04T05:50:28.546Z,26.63
2023-03-04T05:54:31.810Z,29.17
2023-03-04T05:58:34.796Z,30.33
2023-03-04T06:02:39.373Z,27.33
2023-03-04T06:06:42.675Z,26.20
2023-03-04T06:10:45.748Z,25.77
2023-03-04T06:14:48.813Z,24.47
2023-03-04T06:18:53.253Z,26.87
2023-03-04T06:22:56.238Z,26.90
2023-03-04T06:26:59.533Z,25.93
2023-03-04T06:31:02.538Z,25.20
2023-03-04T06:35:08.024Z,24.17
2023-03-04T06:39:11.490Z,23.93
2023-03-04T06:43:14.571Z,24.03
2023-03-04T06:47:18.835Z,28.37
2023-03-04T06:51:23.395Z,27.30
2023-03-04T06:55:26.416Z,26.07
2023-03-04T06:59:29.497Z,29.13
2023-03-04T07:03:32.458Z,36.03
2023-03-04T07:07:37.417Z,34.10
2023-03-04T07:11:40.648Z,35.70
2023-03-04T07:15:43.730Z,37.83
2023-03-04T07:19:46.720Z,37.53
2023-03-04T07:23:51.182Z,34.90
2023-03-04T07:27:54.175Z,39.95
2023-03-04T07:31:57.483Z,35.83
2023-03-04T07:36:00.802Z,33.10
2023-03-04T07:40:08.173Z,37.03
2023-03-04T07:44:13.607Z,32.47
2023-03-04T07:48:16.715Z,36.97
2023-03-04T07:52:19.730Z,32.60
2023-03-04T07:56:26.281Z,38.03
2023-03-04T08:00:29.253Z,32.80
2023-03-04T08:04:32.375Z,34.35
2023-03-04T08:08:35.789Z,30.23
2023-03-04T08:12:40.295Z,29.35
2023-03-04T08:16:43.351Z,30.30
2023-03-04T08:20:46.406Z,31.90
2023-03-04T08:24:49.370Z,31.25
2023-03-04T08:28:55.007Z,28.88
2023-03-04T08:32:58.010Z,26.90
2023-03-04T08:37:01.108Z,28.60
2023-03-04T08:41:04.858Z,30.92
2023-03-04T08:45:10.234Z,26.15
2023-03-04T08:49:14.526Z,29.05
2023-03-04T08:53:18.867Z,25.90
2023-03-04T08:57:21.848Z,25.67
2023-03-04T09:01:26.312Z,27.38
2023-03-04T09:05:29.276Z,23.98
2023-03-04T09:09:33.208Z,25.20
2023-03-04T09:13:37.843Z,25.65
2023-03-04T09:17:42.818Z,21.88
2023-03-04T09:21:45.813Z,21.77
2023-03-04T09:25:49.730Z,23.13
2023-03-04T09:29:52.718Z,17.23
2023-03-04T09:33:59.377Z,19.73
2023-03-04T09:38:02.639Z,17.65
2023-03-04T09:42:08.800Z,16.15
2023-03-04T09:46:16.014Z,18.55
2023-03-04T09:50:21.674Z,14.52
2023-03-04T09:54:43.474Z,16.45
2023-03-04T09:58:58.484Z,14.38
2023-03-04T10:03:11.504Z,12.48
2023-03-04T10:07:20.203Z,11.88
2023-03-04T10:11:28.282Z,11.77
2023-03-04T10:15:36.434Z,14.02
2023-03-04T10:19:52.272Z,16.45
2023-03-04T10:23:59.357Z,15.52
2023-03-04T10:28:05.679Z,11.75
2023-03-04T10:32:13.491Z,14.30
2023-03-04T10:36:37.002Z,17.80
2023-03-04T10:40:44.562Z,12.70
2023-03-04T10:44:54.091Z,13.65
2023-03-04T10:48:57.165Z,13.73
2023-03-04T10:53:00.416Z,15.77
2023-03-04T10:57:06.881Z,13.48
2023-03-04T11:01:17.628Z,11.50
2023-03-04T11:05:23.036Z,11.43
2023-03-04T11:09:28.107Z,10.10
2023-03-04T11:13:33.655Z,11.63
2023-03-04T11:17:46.468Z,13.32
2023-03-04T11:21:50.652Z,13.60
2023-03-04T11:26:00.113Z,12.60
2023-03-04T11:30:23.117Z,10.65
2023-03-04T11:34:35.173Z,17.02
2023-03-04T11:38:43.308Z,14.05
2023-03-04T11:42:52.177Z,12.93
2023-03-04T11:47:13.985Z,11.73
2023-03-04T11:51:24.082Z,10.45
2023-03-04T11:55:35.565Z,10.70
2023-03-04T11:59:56.961Z,9.18
2023-03-04T12:04:16.526Z,12.10
2023-03-04T12:08:45.917Z,9.77
2023-03-04T12:13:03.184Z,9.80
2023-03-04T12:17:30.569Z,9.80
2023-03-04T12:21:55.792Z,9.18
2023-03-04T12:26:08.004Z,11.73
2023-03-04T12:30:27.561Z,9.90
2023-03-04T12:34:53.668Z,9.60
2023-03-04T12:39:34.657Z,8.07
2023-03-04T12:43:47.763Z,9.13
2023-03-04T12:48:01.709Z,11.15
2023-03-04T12:52:16.365Z,9.70
2023-03-04T12:56:27.899Z,10.57
2023-03-04T13:00:43.026Z,10.20
2023-03-04T13:04:58.759Z,10.85
2023-03-04T13:09:11.756Z,13.35
2023-03-04T13:13:39.446Z,10.75
2023-03-04T13:17:44.899Z,12.10
2023-03-04T13:21:50.638Z,11.50
2023-03-04T13:26:18.573Z,9.23
2023-03-04T13:30:42.627Z,8.85
2023-03-04T13:34:51.811Z,9.88
2023-03-04T13:39:03.840Z,10.60
2023-03-04T13:43:27.066Z,11.70
2023-03-04T13:47:48.828Z,12.63
2023-03-04T13:51:52.800Z,11.57
2023-03-04T13:56:24.056Z,12.65
2023-03-04T14:00:27.752Z,11.35
2023-03-04T14:04:38.380Z,12.05
2023-03-04T14:08:41.363Z,11.82
2023-03-04T14:12:47.648Z,12.13
2023-03-04T14:16:53.563Z,13.50
2023-03-04T14:21:01.813Z,13.43
2023-03-04T14:25:07.788Z,15.02
2023-03-04T14:29:25.600Z,14.93
2023-03-04T14:33:30.756Z,15.95
2023-03-04T14:37:44.139Z,16.85
2023-03-04T14:41:49.022Z,18.40
2023-03-04T14:45:54.624Z,16.48
2023-03-04T14:49:57.970Z,16.25
2023-03-04T14:54:02.466Z,16.60
2023-03-04T14:58:10.749Z,19.17
2023-03-04T15:02:30.992Z,16.70
2023-03-04T15:06:36.474Z,18.08
2023-03-04T15:10:41.133Z,15.18
2023-03-04T15:14:45.790Z,18.65
2023-03-04T15:18:56.642Z,17.90
2023-03-04T15:23:02.926Z,16.13
2023-03-04T15:27:11.374Z,18.15
2023-03-04T15:31:18.118Z,17.00
2023-03-04T15:35:22.020Z,15.70
2023-03-04T15:39:26.412Z,14.50
2023-03-04T15:43:30.931Z,16.65
2023-03-04T15:47:33.892Z,13.48
2023-03-04T15:51:37.294Z,13.00
2023-03-04T15:55:40.560Z,13.85
2023-03-04T15:59:44.997Z,14.15
2023-03-04T16:03:47.992Z,14.00
2023-03-04T16:07:52.523Z,14.10
2023-03-04T16:12:01.683Z,15.15
2023-03-04T16:16:06.825Z,12.75
2023-03-04T16:20:11.604Z,12.32
2023-03-04T16:24:19.002Z,11.60
2023-03-04T16:28:22.400Z,13.02
2023-03-04T16:32:26.904Z,13.10
2023-03-04T16:36:30.689Z,11.23
2023-03-04T16:40:34.179Z,13.35
2023-03-04T16:44:37.147Z,13.00
2023-03-04T16:48:42.356Z,9.90
2023-03-04T16:52:47.042Z,9.73
2023-03-04T16:56:50.138Z,13.23
2023-03-04T17:00:53.150Z,13.95
2023-03-04T17:04:59.380Z,12.60
2023-03-04T17:09:02.405Z,13.38
2023-03-04T17:13:05.994Z,11.80
2023-03-04T17:17:09.236Z,9.60
2023-03-04T17:21:16.271Z,13.05
2023-03-04T17:25:19.717Z,9.32
2023-03-04T17:29:22.932Z,9.68
2023-03-04T17:33:25.936Z,10.13
2023-03-04T17:37:30.363Z,11.52
2023-03-04T17:41:35.723Z,8.10
2023-03-04T17:45:39.303Z,8.57
2023-03-04T17:49:42.418Z,8.80
2023-03-04T17:53:46.854Z,7.70
2023-03-04T17:57:52.871Z,7.95
2023-03-04T18:01:55.985Z,6.43
2023-03-04T18:05:59.074Z,7.88
2023-03-04T18:10:03.580Z,6.80
2023-03-04T18:14:06.952Z,7.10
2023-03-04T18:18:10.057Z,8.57
2023-03-04T18:22:13.335Z,8.52
2023-03-04T18:26:21.054Z,9.45
2023-03-04T18:30:27.295Z,9.68
2023-03-04T18:34:30.399Z,8.00
2023-03-04T18:38:33.880Z,9.90
2023-03-04T18:42:38.609Z,9.75
2023-03-04T18:46:45.189Z,8.95
2023-03-04T18:50:48.478Z,9.10
2023-03-04T18:54:51.537Z,6.57
2023-03-04T18:58:56.183Z,7.95
2023-03-04T19:03:02.270Z,7.70
2023-03-04T19:07:05.400Z,9.95
2023-03-04T19:11:08.386Z,8.57
2023-03-04T19:15:13.769Z,9.18
2023-03-04T19:19:16.752Z,12.07
2023-03-04T19:23:19.823Z,9.27
2023-03-04T19:27:23.276Z,12.52
2023-03-04T19:31:28.007Z,12.18
2023-03-04T19:35:32.479Z,9.23
2023-03-04T19:39:35.645Z,9.30
2023-03-04T19:43:39.597Z,7.07
2023-03-04T19:47:44.210Z,7.65
2023-03-04T19:51:47.206Z,8.38
2023-03-04T19:55:50.667Z,10.07
2023-03-04T19:59:53.707Z,10.20
2023-03-04T20:04:00.006Z,9.43
2023-03-04T20:08:03.171Z,12.50
2023-03-04T20:12:06.935Z,9.07
2023-03-04T20:16:10.871Z,9.45
2023-03-04T20:20:16.489Z,8.93
2023-03-04T20:24:23.002Z,8.55
2023-03-04T20:28:27.154Z,10.48
2023-03-04T20:32:30.226Z,7.70
2023-03-04T20:36:35.961Z,8.30
2023-03-04T20:40:40.462Z,8.73
2023-03-04T20:44:43.522Z,9.48
2023-03-04T20:48:46.514Z,9.57
2023-03-04T20:52:51.068Z,7.07
2023-03-04T20:56:54.048Z,8.00
2023-03-04T21:00:57.141Z,8.18
2023-03-04T21:05:01.346Z,8.00
2023-03-04T21:09:07.679Z,6.15
2023-03-04T21:13:16.541Z,7.72
2023-03-04T21:17:19.690Z,8.10
2023-03-04T21:21:24.284Z,9.32
2023-03-04T21:25:28.784Z,9.43
2023-03-04T21:29:32.140Z,7.07
2023-03-04T21:33:37.038Z,6.45
2023-03-04T21:37:41.692Z,6.47
2023-03-04T21:41:46.610Z,7.85
2023-03-04T21:45:54.376Z,9.32
2023-03-04T21:49:57.426Z,7.78
2023-03-04T21:54:00.434Z,9.07
2023-03-04T21:58:04.923Z,10.52
2023-03-04T22:02:08.589Z,10.68
2023-03-04T22:06:13.085Z,11.65
2023-03-04T22:10:16.358Z,9.77
2023-03-04T22:14:20.805Z,9.75
2023-03-04T22:18:23.816Z,10.95
2023-03-04T22:22:28.054Z,8.35
2023-03-04T22:26:32.590Z,12.23
2023-03-04T22:30:37.585Z,11.48
2023-03-04T22:34:40.880Z,9.60
2023-03-04T22:38:44.766Z,11.43
2023-03-04T22:42:48.904Z,11.18
2023-03-04T22:46:53.423Z,11.27
2023-03-04T22:50:56.428Z,9.10
2023-03-04T22:55:02.179Z,14.03
2023-03-04T22:59:05.136Z,13.50
2023-03-04T23:03:10.393Z,11.68
2023-03-04T23:07:13.340Z,12.15
2023-03-04T23:11:19.450Z,12.35
2023-03-04T23:15:22.824Z,10.43
2023-03-04T23:19:27.280Z,12.87
2023-03-04T23:23:30.269Z,13.07
2023-03-04T23:27:33.335Z,11.30
2023-03-04T23:31:36.920Z,12.37
2023-03-04T23:35:41.386Z,12.23
2023-03-04T23:39:44.599Z,12.37
2023-03-04T23:43:48.322Z,13.50
2023-03-04T23:47:51.377Z,10.67
2023-03-04T23:51:55.981Z,13.43
2023-03-04T23:55:58.947Z,14.52
